sensor_id;sensor_type;location;lat;lon;timestamp;temperature;humidity
3356;DHT22;1691;52.486;13.374;2023-09-30T00:01:57;18.10;92.70
3356;DHT22;1691;52.486;13.374;2023-09-30T00:04:25;18.10;92.40
3356;DHT22;1691;52.486;13.374;2023-09-30T00:06:54;18.10;92.20
3356;DHT22;1691;52.486;13.374;2023-09-30T00:09:21;18.10;91.90
3356;DHT22;1691;52.486;13.374;2023-09-30T00:11:48;18.10;91.70
3356;DHT22;1691;52.486;13.374;2023-09-30T00:14:15;18.10;91.40
3356;DHT22;1691;52.486;13.374;2023-09-30T00:16:43;18.10;91.10
3356;DHT22;1691;52.486;13.374;2023-09-30T00:19:11;18.00;90.80
3356;DHT22;1691;52.486;13.374;2023-09-30T00:21:38;18.00;90.60
3356;DHT22;1691;52.486;13.374;2023-09-30T00:24:05;17.90;90.40
3356;DHT22;1691;52.486;13.374;2023-09-30T00:26:32;17.80;90.40
3356;DHT22;1691;52.486;13.374;2023-09-30T00:28:59;17.70;90.30
3356;DHT22;1691;52.486;13.374;2023-09-30T00:31:26;17.60;90.30
3356;DHT22;1691;52.486;13.374;2023-09-30T00:33:53;17.50;90.30
3356;DHT22;1691;52.486;13.374;2023-09-30T00:36:21;17.40;90.50
3356;DHT22;1691;52.486;13.374;2023-09-30T00:38:48;17.30;90.70
3356;DHT22;1691;52.486;13.374;2023-09-30T00:41:15;17.20;90.90
3356;DHT22;1691;52.486;13.374;2023-09-30T00:43:42;17.20;91.00
3356;DHT22;1691;52.486;13.374;2023-09-30T00:49:00;17.00;91.10
3356;DHT22;1691;52.486;13.374;2023-09-30T00:51:27;16.90;91.40
3356;DHT22;1691;52.486;13.374;2023-09-30T00:53:56;16.80;91.50
3356;DHT22;1691;52.486;13.374;2023-09-30T00:56:26;16.80;91.60
3356;DHT22;1691;52.486;13.374;2023-09-30T00:58:54;16.70;91.60
3356;DHT22;1691;52.486;13.374;2023-09-30T01:01:22;16.60;91.70
3356;DHT22;1691;52.486;13.374;2023-09-30T01:03:50;16.50;91.70
3356;DHT22;1691;52.486;13.374;2023-09-30T01:06:18;16.50;91.80
3356;DHT22;1691;52.486;13.374;2023-09-30T01:08:46;16.40;91.90
3356;DHT22;1691;52.486;13.374;2023-09-30T01:11:13;16.30;91.90
3356;DHT22;1691;52.486;13.374;2023-09-30T01:13:42;16.20;92.00
3356;DHT22;1691;52.486;13.374;2023-09-30T01:16:11;16.10;92.10
3356;DHT22;1691;52.486;13.374;2023-09-30T01:18:39;16.10;92.20
3356;DHT22;1691;52.486;13.374;2023-09-30T01:21:10;16.00;92.20
3356;DHT22;1691;52.486;13.374;2023-09-30T01:23:38;15.90;92.20
3356;DHT22;1691;52.486;13.374;2023-09-30T01:26:11;15.90;92.30
3356;DHT22;1691;52.486;13.374;2023-09-30T01:28:39;15.80;92.30
3356;DHT22;1691;52.486;13.374;2023-09-30T01:31:06;15.80;92.40
3356;DHT22;1691;52.486;13.374;2023-09-30T01:33:34;15.70;92.50
3356;DHT22;1691;52.486;13.374;2023-09-30T01:36:01;15.70;92.60
3356;DHT22;1691;52.486;13.374;2023-09-30T01:38:28;15.70;92.70
3356;DHT22;1691;52.486;13.374;2023-09-30T01:40:55;15.60;92.70
3356;DHT22;1691;52.486;13.374;2023-09-30T01:43:26;15.60;92.80
3356;DHT22;1691;52.486;13.374;2023-09-30T01:45:53;15.60;92.70
3356;DHT22;1691;52.486;13.374;2023-09-30T01:48:20;15.50;92.80
3356;DHT22;1691;52.486;13.374;2023-09-30T01:50:47;15.50;92.80
3356;DHT22;1691;52.486;13.374;2023-09-30T01:53:14;15.50;92.80
3356;DHT22;1691;52.486;13.374;2023-09-30T01:55:41;15.40;92.90
3356;DHT22;1691;52.486;13.374;2023-09-30T01:58:09;15.40;93.00
3356;DHT22;1691;52.486;13.374;2023-09-30T02:00:38;15.30;93.10
3356;DHT22;1691;52.486;13.374;2023-09-30T02:03:05;15.30;93.20
3356;DHT22;1691;52.486;13.374;2023-09-30T02:05:32;15.30;93.40
3356;DHT22;1691;52.486;13.374;2023-09-30T02:07:59;15.20;93.50
3356;DHT22;1691;52.486;13.374;2023-09-30T02:10:26;15.20;93.60
3356;DHT22;1691;52.486;13.374;2023-09-30T02:12:53;15.20;93.60
3356;DHT22;1691;52.486;13.374;2023-09-30T02:15:20;15.10;93.70
3356;DHT22;1691;52.486;13.374;2023-09-30T02:17:47;15.10;93.80
3356;DHT22;1691;52.486;13.374;2023-09-30T02:20:16;15.10;93.80
3356;DHT22;1691;52.486;13.374;2023-09-30T02:22:46;15.00;93.90
3356;DHT22;1691;52.486;13.374;2023-09-30T02:25:14;15.00;94.00
3356;DHT22;1691;52.486;13.374;2023-09-30T02:27:41;14.90;94.10
3356;DHT22;1691;52.486;13.374;2023-09-30T02:30:11;14.90;94.20
3356;DHT22;1691;52.486;13.374;2023-09-30T02:32:41;14.90;94.30
3356;DHT22;1691;52.486;13.374;2023-09-30T02:35:08;14.90;94.40
3356;DHT22;1691;52.486;13.374;2023-09-30T02:37:39;14.80;94.40
3356;DHT22;1691;52.486;13.374;2023-09-30T02:40:07;14.80;94.60
3356;DHT22;1691;52.486;13.374;2023-09-30T02:42:38;14.80;94.80
3356;DHT22;1691;52.486;13.374;2023-09-30T02:45:05;14.70;95.00
3356;DHT22;1691;52.486;13.374;2023-09-30T02:47:35;14.70;95.10
3356;DHT22;1691;52.486;13.374;2023-09-30T02:50:03;14.70;95.10
3356;DHT22;1691;52.486;13.374;2023-09-30T02:52:42;14.60;95.20
3356;DHT22;1691;52.486;13.374;2023-09-30T02:55:10;14.60;95.40
3356;DHT22;1691;52.486;13.374;2023-09-30T02:57:38;14.50;95.60
3356;DHT22;1691;52.486;13.374;2023-09-30T03:00:06;14.50;95.80
3356;DHT22;1691;52.486;13.374;2023-09-30T03:02:54;14.50;96.10
3356;DHT22;1691;52.486;13.374;2023-09-30T03:05:22;14.40;96.20
3356;DHT22;1691;52.486;13.374;2023-09-30T03:07:50;14.40;96.30
3356;DHT22;1691;52.486;13.374;2023-09-30T03:10:17;14.40;96.40
3356;DHT22;1691;52.486;13.374;2023-09-30T03:12:47;14.40;96.40
3356;DHT22;1691;52.486;13.374;2023-09-30T03:15:15;14.40;96.50
3356;DHT22;1691;52.486;13.374;2023-09-30T03:17:42;14.30;96.60
3356;DHT22;1691;52.486;13.374;2023-09-30T03:20:10;14.30;96.70
3356;DHT22;1691;52.486;13.374;2023-09-30T03:22:41;14.30;96.80
3356;DHT22;1691;52.486;13.374;2023-09-30T03:25:09;14.20;96.90
3356;DHT22;1691;52.486;13.374;2023-09-30T03:27:37;14.20;97.00
3356;DHT22;1691;52.486;13.374;2023-09-30T03:30:05;14.20;97.20
3356;DHT22;1691;52.486;13.374;2023-09-30T03:32:32;14.10;97.40
3356;DHT22;1691;52.486;13.374;2023-09-30T03:35:00;14.10;97.50
3356;DHT22;1691;52.486;13.374;2023-09-30T03:37:27;14.10;97.60
3356;DHT22;1691;52.486;13.374;2023-09-30T03:39:54;14.00;97.60
3356;DHT22;1691;52.486;13.374;2023-09-30T03:42:21;14.00;97.80
3356;DHT22;1691;52.486;13.374;2023-09-30T03:44:49;14.00;97.80
3356;DHT22;1691;52.486;13.374;2023-09-30T03:47:16;13.90;97.90
3356;DHT22;1691;52.486;13.374;2023-09-30T03:49:43;13.90;98.10
3356;DHT22;1691;52.486;13.374;2023-09-30T03:52:10;13.90;98.20
3356;DHT22;1691;52.486;13.374;2023-09-30T03:54:41;13.90;98.20
3356;DHT22;1691;52.486;13.374;2023-09-30T03:57:08;13.90;98.30
3356;DHT22;1691;52.486;13.374;2023-09-30T03:59:35;13.90;98.40
3356;DHT22;1691;52.486;13.374;2023-09-30T04:02:02;13.90;98.50
3356;DHT22;1691;52.486;13.374;2023-09-30T04:04:29;13.80;98.50
3356;DHT22;1691;52.486;13.374;2023-09-30T04:06:56;13.80;98.50
3356;DHT22;1691;52.486;13.374;2023-09-30T04:09:23;13.80;98.60
3356;DHT22;1691;52.486;13.374;2023-09-30T04:11:52;13.80;98.70
3356;DHT22;1691;52.486;13.374;2023-09-30T04:14:19;13.70;98.70
3356;DHT22;1691;52.486;13.374;2023-09-30T04:16:47;13.70;98.70
3356;DHT22;1691;52.486;13.374;2023-09-30T04:19:15;13.60;98.70
3356;DHT22;1691;52.486;13.374;2023-09-30T04:21:42;13.60;98.70
3356;DHT22;1691;52.486;13.374;2023-09-30T04:24:09;13.60;98.70
3356;DHT22;1691;52.486;13.374;2023-09-30T04:26:36;13.50;98.70
3356;DHT22;1691;52.486;13.374;2023-09-30T04:29:03;13.50;98.70
3356;DHT22;1691;52.486;13.374;2023-09-30T04:31:31;13.50;98.70
3356;DHT22;1691;52.486;13.374;2023-09-30T04:33:58;13.50;98.70
3356;DHT22;1691;52.486;13.374;2023-09-30T04:36:25;13.50;98.70
3356;DHT22;1691;52.486;13.374;2023-09-30T04:38:52;13.50;98.70
3356;DHT22;1691;52.486;13.374;2023-09-30T04:41:19;13.50;98.70
3356;DHT22;1691;52.486;13.374;2023-09-30T04:43:46;13.50;98.70
3356;DHT22;1691;52.486;13.374;2023-09-30T04:46:14;13.40;98.70
3356;DHT22;1691;52.486;13.374;2023-09-30T04:48:42;13.40;98.70
3356;DHT22;1691;52.486;13.374;2023-09-30T04:51:09;13.40;98.70
3356;DHT22;1691;52.486;13.374;2023-09-30T04:53:37;13.40;98.70
3356;DHT22;1691;52.486;13.374;2023-09-30T04:56:04;13.40;98.70
3356;DHT22;1691;52.486;13.374;2023-09-30T04:58:31;13.30;98.70
3356;DHT22;1691;52.486;13.374;2023-09-30T05:00:58;13.30;98.70
3356;DHT22;1691;52.486;13.374;2023-09-30T05:03:25;13.30;98.70
3356;DHT22;1691;52.486;13.374;2023-09-30T05:05:52;13.30;98.70
3356;DHT22;1691;52.486;13.374;2023-09-30T05:08:25;13.20;98.70
3356;DHT22;1691;52.486;13.374;2023-09-30T05:10:52;13.20;98.70
3356;DHT22;1691;52.486;13.374;2023-09-30T05:13:22;13.20;98.70
3356;DHT22;1691;52.486;13.374;2023-09-30T05:15:50;13.20;98.70
3356;DHT22;1691;52.486;13.374;2023-09-30T05:18:18;13.20;98.70
3356;DHT22;1691;52.486;13.374;2023-09-30T05:20:45;13.20;98.70
3356;DHT22;1691;52.486;13.374;2023-09-30T05:23:12;13.20;98.70
3356;DHT22;1691;52.486;13.374;2023-09-30T05:25:41;13.20;98.70
3356;DHT22;1691;52.486;13.374;2023-09-30T05:28:09;13.20;98.70
3356;DHT22;1691;52.486;13.374;2023-09-30T05:30:38;13.30;98.70
3356;DHT22;1691;52.486;13.374;2023-09-30T05:33:06;13.30;98.70
3356;DHT22;1691;52.486;13.374;2023-09-30T05:35:33;13.40;98.70
3356;DHT22;1691;52.486;13.374;2023-09-30T05:38:00;13.50;98.70
3356;DHT22;1691;52.486;13.374;2023-09-30T05:40:27;13.70;98.70
3356;DHT22;1691;52.486;13.374;2023-09-30T05:42:57;13.90;98.70
3356;DHT22;1691;52.486;13.374;2023-09-30T05:45:26;14.20;98.70
3356;DHT22;1691;52.486;13.374;2023-09-30T05:47:54;14.60;98.70
3356;DHT22;1691;52.486;13.374;2023-09-30T05:50:23;14.90;98.70
3356;DHT22;1691;52.486;13.374;2023-09-30T05:52:52;15.30;98.70
3356;DHT22;1691;52.486;13.374;2023-09-30T05:55:20;15.70;98.70
3356;DHT22;1691;52.486;13.374;2023-09-30T05:57:48;16.10;98.70
3356;DHT22;1691;52.486;13.374;2023-09-30T06:00:22;16.40;98.40
3356;DHT22;1691;52.486;13.374;2023-09-30T06:02:50;16.90;97.80
3356;DHT22;1691;52.486;13.374;2023-09-30T06:05:18;17.30;97.00
3356;DHT22;1691;52.486;13.374;2023-09-30T06:07:46;17.80;95.90
3356;DHT22;1691;52.486;13.374;2023-09-30T06:10:13;18.20;94.90
3356;DHT22;1691;52.486;13.374;2023-09-30T06:12:46;18.60;93.80
3356;DHT22;1691;52.486;13.374;2023-09-30T06:15:21;19.10;92.60
3356;DHT22;1691;52.486;13.374;2023-09-30T06:17:53;19.60;91.30
3356;DHT22;1691;52.486;13.374;2023-09-30T06:20:21;19.90;90.30
3356;DHT22;1691;52.486;13.374;2023-09-30T06:22:54;20.20;88.60
3356;DHT22;1691;52.486;13.374;2023-09-30T06:25:21;20.50;87.10
3356;DHT22;1691;52.486;13.374;2023-09-30T06:27:50;20.70;84.70
3356;DHT22;1691;52.486;13.374;2023-09-30T06:30:17;20.60;83.60
3356;DHT22;1691;52.486;13.374;2023-09-30T06:32:47;20.20;82.80
3356;DHT22;1691;52.486;13.374;2023-09-30T06:35:14;19.70;83.20
3356;DHT22;1691;52.486;13.374;2023-09-30T06:37:42;19.30;83.90
3356;DHT22;1691;52.486;13.374;2023-09-30T06:40:09;18.90;84.50
3356;DHT22;1691;52.486;13.374;2023-09-30T06:42:39;18.70;85.60
3356;DHT22;1691;52.486;13.374;2023-09-30T06:45:07;18.70;85.80
3356;DHT22;1691;52.486;13.374;2023-09-30T06:47:35;18.80;85.20
3356;DHT22;1691;52.486;13.374;2023-09-30T06:50:04;19.00;85.10
3356;DHT22;1691;52.486;13.374;2023-09-30T06:52:35;19.10;84.10
3356;DHT22;1691;52.486;13.374;2023-09-30T06:55:02;19.10;83.80
3356;DHT22;1691;52.486;13.374;2023-09-30T06:57:36;19.10;83.20
3356;DHT22;1691;52.486;13.374;2023-09-30T07:00:07;18.90;83.20
3356;DHT22;1691;52.486;13.374;2023-09-30T07:02:36;18.70;83.60
3356;DHT22;1691;52.486;13.374;2023-09-30T07:05:12;18.50;83.90
3356;DHT22;1691;52.486;13.374;2023-09-30T07:07:40;18.40;84.30
3356;DHT22;1691;52.486;13.374;2023-09-30T07:10:10;18.30;84.90
3356;DHT22;1691;52.486;13.374;2023-09-30T07:12:38;18.50;84.70
3356;DHT22;1691;52.486;13.374;2023-09-30T07:15:06;18.70;84.50
3356;DHT22;1691;52.486;13.374;2023-09-30T07:17:34;18.90;83.80
3356;DHT22;1691;52.486;13.374;2023-09-30T07:20:02;19.10;83.20
3356;DHT22;1691;52.486;13.374;2023-09-30T07:22:29;19.50;82.30
3356;DHT22;1691;52.486;13.374;2023-09-30T07:24:59;19.80;81.10
3356;DHT22;1691;52.486;13.374;2023-09-30T07:27:26;19.80;80.40
3356;DHT22;1691;52.486;13.374;2023-09-30T07:29:54;19.70;80.20
3356;DHT22;1691;52.486;13.374;2023-09-30T07:32:21;19.60;80.20
3356;DHT22;1691;52.486;13.374;2023-09-30T07:34:51;19.40;80.20
3356;DHT22;1691;52.486;13.374;2023-09-30T07:37:18;19.30;80.60
3356;DHT22;1691;52.486;13.374;2023-09-30T07:39:47;19.20;81.00
3356;DHT22;1691;52.486;13.374;2023-09-30T07:42:14;19.10;81.10
3356;DHT22;1691;52.486;13.374;2023-09-30T07:44:41;19.10;81.00
3356;DHT22;1691;52.486;13.374;2023-09-30T07:47:08;19.10;80.60
3356;DHT22;1691;52.486;13.374;2023-09-30T07:49:38;18.90;80.80
3356;DHT22;1691;52.486;13.374;2023-09-30T07:52:06;18.90;81.10
3356;DHT22;1691;52.486;13.374;2023-09-30T07:54:32;18.80;81.10
3356;DHT22;1691;52.486;13.374;2023-09-30T07:57:00;18.70;81.10
3356;DHT22;1691;52.486;13.374;2023-09-30T07:59:27;18.60;81.50
3356;DHT22;1691;52.486;13.374;2023-09-30T08:01:54;18.50;81.90
3356;DHT22;1691;52.486;13.374;2023-09-30T08:04:21;18.30;82.30
3356;DHT22;1691;52.486;13.374;2023-09-30T08:06:48;18.20;82.80
3356;DHT22;1691;52.486;13.374;2023-09-30T08:09:16;18.10;83.20
3356;DHT22;1691;52.486;13.374;2023-09-30T08:11:45;17.90;83.40
3356;DHT22;1691;52.486;13.374;2023-09-30T08:14:12;17.80;83.90
3356;DHT22;1691;52.486;13.374;2023-09-30T08:16:39;17.90;84.30
3356;DHT22;1691;52.486;13.374;2023-09-30T08:19:06;18.00;84.50
3356;DHT22;1691;52.486;13.374;2023-09-30T08:21:33;18.20;84.50
3356;DHT22;1691;52.486;13.374;2023-09-30T08:24:01;18.50;83.90
3356;DHT22;1691;52.486;13.374;2023-09-30T08:26:29;18.90;83.00
3356;DHT22;1691;52.486;13.374;2023-09-30T08:28:55;19.30;82.10
3356;DHT22;1691;52.486;13.374;2023-09-30T08:31:23;19.90;81.00
3356;DHT22;1691;52.486;13.374;2023-09-30T08:33:50;20.50;79.10
3356;DHT22;1691;52.486;13.374;2023-09-30T08:36:18;21.30;77.20
3356;DHT22;1691;52.486;13.374;2023-09-30T08:38:45;22.20;74.60
3356;DHT22;1691;52.486;13.374;2023-09-30T08:41:17;23.00;71.50
3356;DHT22;1691;52.486;13.374;2023-09-30T08:43:54;23.30;69.00
3356;DHT22;1691;52.486;13.374;2023-09-30T08:46:22;23.20;68.10
3356;DHT22;1691;52.486;13.374;2023-09-30T08:48:51;23.00;67.90
3356;DHT22;1691;52.486;13.374;2023-09-30T08:51:19;23.10;67.50
3356;DHT22;1691;52.486;13.374;2023-09-30T08:53:46;23.50;66.40
3356;DHT22;1691;52.486;13.374;2023-09-30T08:56:13;23.70;65.30
3356;DHT22;1691;52.486;13.374;2023-09-30T08:58:41;23.70;64.40
3356;DHT22;1691;52.486;13.374;2023-09-30T09:01:08;23.50;64.00
3356;DHT22;1691;52.486;13.374;2023-09-30T09:03:36;23.20;64.00
3356;DHT22;1691;52.486;13.374;2023-09-30T09:06:03;23.00;64.70
3356;DHT22;1691;52.486;13.374;2023-09-30T09:08:30;23.20;64.40
3356;DHT22;1691;52.486;13.374;2023-09-30T09:10:59;23.60;63.40
3356;DHT22;1691;52.486;13.374;2023-09-30T09:13:27;24.20;61.80
3356;DHT22;1691;52.486;13.374;2023-09-30T09:16:10;25.00;59.80
3356;DHT22;1691;52.486;13.374;2023-09-30T09:18:37;25.60;58.10
3356;DHT22;1691;52.486;13.374;2023-09-30T09:21:15;26.20;56.70
3356;DHT22;1691;52.486;13.374;2023-09-30T09:23:45;26.90;55.20
3356;DHT22;1691;52.486;13.374;2023-09-30T09:26:34;27.60;53.60
3356;DHT22;1691;52.486;13.374;2023-09-30T09:29:02;28.00;52.10
3356;DHT22;1691;52.486;13.374;2023-09-30T09:31:32;28.10;51.50
3356;DHT22;1691;52.486;13.374;2023-09-30T09:34:03;28.10;50.90
3356;DHT22;1691;52.486;13.374;2023-09-30T09:36:43;27.90;50.50
3356;DHT22;1691;52.486;13.374;2023-09-30T09:39:12;27.80;50.40
3356;DHT22;1691;52.486;13.374;2023-09-30T09:41:52;27.90;50.20
3356;DHT22;1691;52.486;13.374;2023-09-30T09:44:20;28.00;49.80
3356;DHT22;1691;52.486;13.374;2023-09-30T09:46:51;28.10;49.00
3356;DHT22;1691;52.486;13.374;2023-09-30T09:49:19;28.30;48.40
3356;DHT22;1691;52.486;13.374;2023-09-30T09:51:47;28.60;47.80
3356;DHT22;1691;52.486;13.374;2023-09-30T09:54:16;28.60;47.20
3356;DHT22;1691;52.486;13.374;2023-09-30T09:56:46;28.70;46.90
3356;DHT22;1691;52.486;13.374;2023-09-30T09:59:14;28.90;46.40
3356;DHT22;1691;52.486;13.374;2023-09-30T10:01:41;29.00;45.90
3356;DHT22;1691;52.486;13.374;2023-09-30T10:04:12;29.00;45.50
3356;DHT22;1691;52.486;13.374;2023-09-30T10:06:42;28.60;45.30
3356;DHT22;1691;52.486;13.374;2023-09-30T10:09:11;27.90;46.10
3356;DHT22;1691;52.486;13.374;2023-09-30T10:11:39;27.10;47.20
3356;DHT22;1691;52.486;13.374;2023-09-30T10:14:06;26.80;47.90
3356;DHT22;1691;52.486;13.374;2023-09-30T10:24:51;26.70;47.30
3356;DHT22;1691;52.486;13.374;2023-09-30T10:35:21;24.60;49.80
3356;DHT22;1691;52.486;13.374;2023-09-30T10:37:48;24.10;50.70
3356;DHT22;1691;52.486;13.374;2023-09-30T10:40:26;23.80;51.50
3356;DHT22;1691;52.486;13.374;2023-09-30T10:42:54;23.30;52.50
3356;DHT22;1691;52.486;13.374;2023-09-30T10:50:56;23.00;54.40
3356;DHT22;1691;52.486;13.374;2023-09-30T10:53:27;22.90;54.20
3356;DHT22;1691;52.486;13.374;2023-09-30T10:55:58;22.60;54.40
3356;DHT22;1691;52.486;13.374;2023-09-30T10:58:42;22.20;55.20
3356;DHT22;1691;52.486;13.374;2023-09-30T11:01:10;21.90;55.50
3356;DHT22;1691;52.486;13.374;2023-09-30T11:03:42;21.50;56.10
3356;DHT22;1691;52.486;13.374;2023-09-30T11:06:11;21.40;56.50
3356;DHT22;1691;52.486;13.374;2023-09-30T11:08:43;21.30;56.90
3356;DHT22;1691;52.486;13.374;2023-09-30T11:11:12;21.20;57.00
3356;DHT22;1691;52.486;13.374;2023-09-30T11:13:41;21.20;57.00
3356;DHT22;1691;52.486;13.374;2023-09-30T11:16:08;21.20;57.20
3356;DHT22;1691;52.486;13.374;2023-09-30T11:18:35;21.20;57.20
3356;DHT22;1691;52.486;13.374;2023-09-30T11:21:05;21.20;57.00
3356;DHT22;1691;52.486;13.374;2023-09-30T11:23:37;21.00;57.50
3356;DHT22;1691;52.486;13.374;2023-09-30T11:26:04;20.90;57.60
3356;DHT22;1691;52.486;13.374;2023-09-30T11:28:38;20.90;57.90
3356;DHT22;1691;52.486;13.374;2023-09-30T11:31:10;20.90;58.10
3356;DHT22;1691;52.486;13.374;2023-09-30T11:33:51;21.00;58.40
3356;DHT22;1691;52.486;13.374;2023-09-30T11:36:20;21.10;58.40
3356;DHT22;1691;52.486;13.374;2023-09-30T11:38:49;21.20;58.40
3356;DHT22;1691;52.486;13.374;2023-09-30T11:41:19;21.20;58.40
3356;DHT22;1691;52.486;13.374;2023-09-30T11:43:59;21.20;58.40
3356;DHT22;1691;52.486;13.374;2023-09-30T11:46:31;21.10;58.40
3356;DHT22;1691;52.486;13.374;2023-09-30T11:49:01;21.00;58.70
3356;DHT22;1691;52.486;13.374;2023-09-30T11:51:44;20.90;59.20
3356;DHT22;1691;52.486;13.374;2023-09-30T11:54:14;20.90;59.50
3356;DHT22;1691;52.486;13.374;2023-09-30T11:56:42;20.90;59.50
3356;DHT22;1691;52.486;13.374;2023-09-30T11:59:09;20.90;59.00
3356;DHT22;1691;52.486;13.374;2023-09-30T12:01:39;20.90;58.90
3356;DHT22;1691;52.486;13.374;2023-09-30T12:04:06;21.00;58.70
3356;DHT22;1691;52.486;13.374;2023-09-30T12:06:33;21.00;58.40
3356;DHT22;1691;52.486;13.374;2023-09-30T12:09:01;21.00;58.40
3356;DHT22;1691;52.486;13.374;2023-09-30T12:11:29;21.00;58.70
3356;DHT22;1691;52.486;13.374;2023-09-30T12:13:56;21.00;58.90
3356;DHT22;1691;52.486;13.374;2023-09-30T12:16:23;20.90;59.20
3356;DHT22;1691;52.486;13.374;2023-09-30T12:18:50;21.00;59.50
3356;DHT22;1691;52.486;13.374;2023-09-30T12:21:17;20.90;59.50
3356;DHT22;1691;52.486;13.374;2023-09-30T12:23:47;20.90;59.60
3356;DHT22;1691;52.486;13.374;2023-09-30T12:26:15;20.90;59.90
3356;DHT22;1691;52.486;13.374;2023-09-30T12:28:44;20.90;59.90
3356;DHT22;1691;52.486;13.374;2023-09-30T12:31:11;20.90;59.50
3356;DHT22;1691;52.486;13.374;2023-09-30T12:33:40;20.90;59.50
3356;DHT22;1691;52.486;13.374;2023-09-30T12:36:07;20.90;59.20
3356;DHT22;1691;52.486;13.374;2023-09-30T12:38:34;21.00;58.70
3356;DHT22;1691;52.486;13.374;2023-09-30T12:41:01;21.10;58.20
3356;DHT22;1691;52.486;13.374;2023-09-30T12:43:30;21.10;57.90
3356;DHT22;1691;52.486;13.374;2023-09-30T12:45:57;21.20;57.60
3356;DHT22;1691;52.486;13.374;2023-09-30T12:48:24;21.40;57.30
3356;DHT22;1691;52.486;13.374;2023-09-30T12:50:51;21.50;56.90
3356;DHT22;1691;52.486;13.374;2023-09-30T12:53:18;21.60;56.20
3356;DHT22;1691;52.486;13.374;2023-09-30T12:55:44;21.60;55.80
3356;DHT22;1691;52.486;13.374;2023-09-30T12:58:11;21.70;55.60
3356;DHT22;1691;52.486;13.374;2023-09-30T13:00:38;21.80;55.00
3356;DHT22;1691;52.486;13.374;2023-09-30T13:03:05;21.90;54.50
3356;DHT22;1691;52.486;13.374;2023-09-30T13:05:34;21.80;54.20
3356;DHT22;1691;52.486;13.374;2023-09-30T13:08:01;21.80;54.20
3356;DHT22;1691;52.486;13.374;2023-09-30T13:10:28;21.90;54.10
3356;DHT22;1691;52.486;13.374;2023-09-30T13:12:57;21.90;53.90
3356;DHT22;1691;52.486;13.374;2023-09-30T13:15:24;21.90;53.50
3356;DHT22;1691;52.486;13.374;2023-09-30T13:17:52;21.90;53.30
3356;DHT22;1691;52.486;13.374;2023-09-30T13:20:20;21.90;53.30
3356;DHT22;1691;52.486;13.374;2023-09-30T13:22:47;21.90;52.90
3356;DHT22;1691;52.486;13.374;2023-09-30T13:25:15;21.70;52.50
3356;DHT22;1691;52.486;13.374;2023-09-30T13:27:42;21.60;52.90
3356;DHT22;1691;52.486;13.374;2023-09-30T13:30:10;21.40;52.70
3356;DHT22;1691;52.486;13.374;2023-09-30T13:32:37;21.30;52.50
3356;DHT22;1691;52.486;13.374;2023-09-30T13:35:04;21.20;52.50
3356;DHT22;1691;52.486;13.374;2023-09-30T13:37:34;21.20;52.50
3356;DHT22;1691;52.486;13.374;2023-09-30T13:40:02;21.10;52.90
3356;DHT22;1691;52.486;13.374;2023-09-30T13:42:31;21.00;53.00
3356;DHT22;1691;52.486;13.374;2023-09-30T13:44:58;21.00;52.50
3356;DHT22;1691;52.486;13.374;2023-09-30T13:47:25;20.90;52.10
3356;DHT22;1691;52.486;13.374;2023-09-30T13:49:52;20.80;52.10
3356;DHT22;1691;52.486;13.374;2023-09-30T13:52:19;20.80;52.40
3356;DHT22;1691;52.486;13.374;2023-09-30T13:54:46;20.70;52.70
3356;DHT22;1691;52.486;13.374;2023-09-30T13:57:13;20.70;53.00
3356;DHT22;1691;52.486;13.374;2023-09-30T13:59:41;20.70;52.70
3356;DHT22;1691;52.486;13.374;2023-09-30T14:02:08;20.60;52.50
3356;DHT22;1691;52.486;13.374;2023-09-30T14:04:35;20.60;52.70
3356;DHT22;1691;52.486;13.374;2023-09-30T14:07:03;20.60;52.70
3356;DHT22;1691;52.486;13.374;2023-09-30T14:09:30;20.50;52.90
3356;DHT22;1691;52.486;13.374;2023-09-30T14:12:02;20.50;53.00
3356;DHT22;1691;52.486;13.374;2023-09-30T14:14:31;20.50;53.20
3356;DHT22;1691;52.486;13.374;2023-09-30T14:16:59;20.50;53.20
3356;DHT22;1691;52.486;13.374;2023-09-30T14:19:26;20.40;52.90
3356;DHT22;1691;52.486;13.374;2023-09-30T14:21:55;20.40;52.50
3356;DHT22;1691;52.486;13.374;2023-09-30T14:24:23;20.40;52.40
3356;DHT22;1691;52.486;13.374;2023-09-30T14:26:50;20.30;52.20
3356;DHT22;1691;52.486;13.374;2023-09-30T14:29:17;20.30;52.10
3356;DHT22;1691;52.486;13.374;2023-09-30T14:31:44;20.30;52.40
3356;DHT22;1691;52.486;13.374;2023-09-30T14:34:11;20.20;52.70
3356;DHT22;1691;52.486;13.374;2023-09-30T14:36:38;20.20;53.20
3356;DHT22;1691;52.486;13.374;2023-09-30T14:39:05;20.10;53.50
3356;DHT22;1691;52.486;13.374;2023-09-30T14:41:40;20.10;53.60
3356;DHT22;1691;52.486;13.374;2023-09-30T14:44:07;20.00;53.60
3356;DHT22;1691;52.486;13.374;2023-09-30T14:46:34;20.00;53.60
3356;DHT22;1691;52.486;13.374;2023-09-30T14:49:02;20.00;53.60
3356;DHT22;1691;52.486;13.374;2023-09-30T14:51:29;19.90;53.60
3356;DHT22;1691;52.486;13.374;2023-09-30T14:53:56;19.90;53.60
3356;DHT22;1691;52.486;13.374;2023-09-30T14:56:23;19.90;53.80
3356;DHT22;1691;52.486;13.374;2023-09-30T14:58:50;19.90;53.80
3356;DHT22;1691;52.486;13.374;2023-09-30T15:01:17;19.80;53.90
3356;DHT22;1691;52.486;13.374;2023-09-30T15:03:44;19.80;54.10
3356;DHT22;1691;52.486;13.374;2023-09-30T15:06:11;19.70;54.10
3356;DHT22;1691;52.486;13.374;2023-09-30T15:08:38;19.70;54.20
3356;DHT22;1691;52.486;13.374;2023-09-30T15:11:05;19.60;54.40
3356;DHT22;1691;52.486;13.374;2023-09-30T15:13:32;19.60;54.70
3356;DHT22;1691;52.486;13.374;2023-09-30T15:15:59;19.60;54.70
3356;DHT22;1691;52.486;13.374;2023-09-30T15:18:26;19.50;55.00
3356;DHT22;1691;52.486;13.374;2023-09-30T15:20:53;19.50;55.20
3356;DHT22;1691;52.486;13.374;2023-09-30T15:23:20;19.50;55.50
3356;DHT22;1691;52.486;13.374;2023-09-30T15:25:47;19.40;55.50
3356;DHT22;1691;52.486;13.374;2023-09-30T15:28:14;19.40;55.60
3356;DHT22;1691;52.486;13.374;2023-09-30T15:30:41;19.30;55.80
3356;DHT22;1691;52.486;13.374;2023-09-30T15:33:08;19.30;55.80
3356;DHT22;1691;52.486;13.374;2023-09-30T15:35:35;19.20;55.90
3356;DHT22;1691;52.486;13.374;2023-09-30T15:38:02;19.20;56.10
3356;DHT22;1691;52.486;13.374;2023-09-30T15:40:30;19.10;56.20
3356;DHT22;1691;52.486;13.374;2023-09-30T15:42:58;19.10;56.70
3356;DHT22;1691;52.486;13.374;2023-09-30T15:45:25;19.10;57.00
3356;DHT22;1691;52.486;13.374;2023-09-30T15:47:52;19.00;57.30
3356;DHT22;1691;52.486;13.374;2023-09-30T15:50:19;18.90;57.80
3356;DHT22;1691;52.486;13.374;2023-09-30T15:52:46;18.90;58.10
3356;DHT22;1691;52.486;13.374;2023-09-30T15:55:13;18.80;58.20
3356;DHT22;1691;52.486;13.374;2023-09-30T15:57:40;18.80;58.40
3356;DHT22;1691;52.486;13.374;2023-09-30T16:00:09;18.80;58.50
3356;DHT22;1691;52.486;13.374;2023-09-30T16:02:37;18.70;58.70
3356;DHT22;1691;52.486;13.374;2023-09-30T16:05:04;18.70;58.90
3356;DHT22;1691;52.486;13.374;2023-09-30T16:07:31;18.60;59.00
3356;DHT22;1691;52.486;13.374;2023-09-30T16:09:58;18.60;59.30
3356;DHT22;1691;52.486;13.374;2023-09-30T16:12:25;18.50;59.60
3356;DHT22;1691;52.486;13.374;2023-09-30T16:14:52;18.50;59.80
3356;DHT22;1691;52.486;13.374;2023-09-30T16:17:19;18.40;60.10